Time;durP1;ratioP1;P1;durP2;ratioP2;P2;SDS_P1;SDS_P2;PMS_P1;PMS_P2;Temp;Humidity;BMP_temperature;BMP_pressure;BME280_temperature;BME280_humidity;BME280_pressure;Samples;Min_cycle;Max_cycle;Signal;HPM_P1;HPM_P2
2023/10/06 00:00:40;;;;;;;16.55;8.77;;;13.60;93.20;;;;;;5014304;28;20026;-72
2023/10/06 00:03:08;;;;;;;17.25;9.90;;;13.60;93.20;;;;;;5015704;28;20526;-76
2023/10/06 00:05:34;;;;;;;20.50;10.18;;;13.70;93.20;;;;;;5013687;28;20120;-75
2023/10/06 00:08:00;;;;;;;15.93;10.23;;;13.60;93.20;;;;;;5014736;28;20204;-73
2023/10/06 00:10:31;;;;;;;15.73;9.80;;;13.70;93.30;;;;;;5012375;28;20022;-77
2023/10/06 00:12:59;;;;;;;17.30;9.55;;;13.70;93.20;;;;;;5014622;28;20474;-74
2023/10/06 00:15:35;;;;;;;15.98;9.65;;;13.70;93.20;;;;;;5014621;28;20362;-73
2023/10/06 00:18:07;;;;;;;17.50;9.68;;;13.70;93.20;;;;;;5018818;28;20104;-75
2023/10/06 00:20:48;;;;;;;17.20;10.23;;;13.70;93.10;;;;;;5015848;28;20033;-73
2023/10/06 00:23:21;;;;;;;18.75;9.90;;;13.70;93.20;;;;;;5011864;28;20113;-72
2023/10/06 00:25:57;;;;;;;14.18;9.13;;;13.70;93.20;;;;;;5016929;28;20485;-73
2023/10/06 00:28:27;;;;;;;16.45;9.68;;;13.70;93.10;;;;;;5008008;28;20034;-74
2023/10/06 00:30:57;;;;;;;16.25;10.48;;;13.70;93.10;;;;;;5023101;28;20103;-77
2023/10/06 00:33:32;;;;;;;17.70;9.90;;;13.70;93.10;;;;;;5015942;28;20052;-73
2023/10/06 00:36:01;;;;;;;15.38;9.48;;;13.70;93.10;;;;;;5013806;28;20655;-74
2023/10/06 00:38:30;;;;;;;19.02;10.07;;;13.70;93.10;;;;;;5016758;28;20387;-74
2023/10/06 00:40:56;;;;;;;16.50;9.93;;;13.70;93.00;;;;;;5018096;28;20036;-78
2023/10/06 00:43:34;;;;;;;17.45;10.40;;;13.70;93.00;;;;;;5019934;28;20140;-74
2023/10/06 00:46:06;;;;;;;16.75;9.85;;;13.60;93.00;;;;;;5012969;28;20080;-76
2023/10/06 00:48:38;;;;;;;17.45;10.07;;;13.70;92.90;;;;;;5018080;28;20268;-78
2023/10/06 00:51:22;;;;;;;17.92;10.05;;;13.60;92.80;;;;;;5016203;28;20452;-76
2023/10/06 00:53:52;;;;;;;16.42;9.88;;;13.60;92.80;;;;;;5013222;28;20976;-78
2023/10/06 00:56:25;;;;;;;19.85;10.00;;;13.60;92.90;;;;;;5018618;28;20049;-76
2023/10/06 00:58:51;;;;;;;15.27;9.95;;;13.60;92.80;;;;;;5015589;28;20128;-74
2023/10/06 01:01:17;;;;;;;20.55;11.25;;;13.60;92.90;;;;;;5012334;28;20041;-76
2023/10/06 01:03:44;;;;;;;19.88;10.27;;;13.50;92.80;;;;;;5016765;28;20045;-78
2023/10/06 01:06:14;;;;;;;13.95;9.30;;;13.60;92.90;;;;;;5014894;28;20037;-78
2023/10/06 01:08:52;;;;;;;21.50;11.02;;;13.50;92.90;;;;;;5016325;28;20034;-76
2023/10/06 01:11:26;;;;;;;18.33;9.55;;;13.50;92.90;;;;;;5012636;28;20037;-76
2023/10/06 01:13:56;;;;;;;17.73;10.93;;;13.50;93.00;;;;;;5020068;28;20547;-75
2023/10/06 01:16:35;;;;;;;16.85;10.82;;;13.50;93.00;;;;;;5014475;28;20628;-75
2023/10/06 01:19:14;;;;;;;19.17;10.02;;;13.40;92.90;;;;;;5014386;28;20115;-76
2023/10/06 01:21:47;;;;;;;17.45;9.80;;;13.40;92.90;;;;;;5011967;28;20125;-73
2023/10/06 01:24:15;;;;;;;21.25;11.40;;;13.50;92.80;;;;;;5015849;28;20044;-75
2023/10/06 01:26:41;;;;;;;16.75;9.40;;;13.40;92.80;;;;;;5018308;28;20152;-76
2023/10/06 01:29:11;;;;;;;17.42;9.35;;;13.50;92.70;;;;;;5016135;28;20125;-77
2023/10/06 01:31:41;;;;;;;15.18;9.30;;;13.40;92.60;;;;;;5009699;28;20064;-74
2023/10/06 01:34:10;;;;;;;17.90;9.32;;;13.40;92.60;;;;;;5020024;28;20179;-73
2023/10/06 01:36:39;;;;;;;15.68;9.00;;;13.40;92.50;;;;;;5016352;28;20061;-77
2023/10/06 01:39:18;;;;;;;15.32;8.98;;;13.40;92.60;;;;;;5009232;28;20029;-76
2023/10/06 01:41:46;;;;;;;16.48;9.25;;;13.30;92.40;;;;;;5004103;28;20042;-75
2023/10/06 01:44:15;;;;;;;15.45;9.10;;;13.30;92.40;;;;;;5013659;28;20498;-76
2023/10/06 01:46:44;;;;;;;15.02;8.85;;;13.30;92.30;;;;;;5016227;28;20128;-74
2023/10/06 01:49:10;;;;;;;13.52;8.60;;;13.40;92.20;;;;;;5018509;28;20308;-75
2023/10/06 01:51:39;;;;;;;15.18;8.60;;;13.30;92.10;;;;;;5012684;28;20029;-75
2023/10/06 01:54:12;;;;;;;14.73;8.50;;;13.30;92.00;;;;;;5017381;28;20034;-74
2023/10/06 01:56:44;;;;;;;15.00;8.95;;;13.40;91.90;;;;;;5014250;28;20046;-76
2023/10/06 01:59:12;;;;;;;18.23;9.82;;;13.30;91.80;;;;;;5017965;28;20452;-76
2023/10/06 02:01:39;;;;;;;14.82;8.57;;;13.30;91.80;;;;;;5016126;28;20533;-73
2023/10/06 02:04:10;;;;;;;15.48;8.32;;;13.30;91.80;;;;;;5014020;28;20121;-74
2023/10/06 02:06:41;;;;;;;15.15;7.72;;;13.30;91.80;;;;;;5019282;28;20038;-78
2023/10/06 02:09:14;;;;;;;13.43;8.02;;;13.30;91.70;;;;;;5016861;28;20038;-75
2023/10/06 02:11:44;;;;;;;11.98;7.65;;;13.30;91.60;;;;;;5017812;28;20568;-75
2023/10/06 02:14:18;;;;;;;12.60;7.82;;;13.30;91.60;;;;;;5014074;28;20050;-73
2023/10/06 02:16:46;;;;;;;13.65;7.85;;;13.30;91.40;;;;;;5019510;28;20548;-74
2023/10/06 02:19:21;;;;;;;12.85;7.90;;;13.30;91.50;;;;;;5016156;28;20053;-77
2023/10/06 02:21:50;;;;;;;13.13;7.63;;;13.30;91.30;;;;;;5019215;28;20034;-79
2023/10/06 02:24:16;;;;;;;15.75;7.75;;;13.30;91.30;;;;;;5011909;28;20033;-71
2023/10/06 02:26:43;;;;;;;14.30;7.72;;;13.30;91.30;;;;;;5017032;28;20037;-76
2023/10/06 02:29:21;;;;;;;15.07;7.18;;;13.20;91.30;;;;;;5010017;28;20033;-78
2023/10/06 02:31:47;;;;;;;18.40;7.63;;;13.20;91.40;;;;;;5010389;28;20058;-76
2023/10/06 02:34:18;;;;;;;13.23;7.20;;;13.20;91.20;;;;;;5012030;28;20068;-77
2023/10/06 02:36:44;;;;;;;15.13;7.22;;;13.30;91.30;;;;;;5008743;28;20096;-75
2023/10/06 02:39:15;;;;;;;15.00;7.18;;;13.30;91.20;;;;;;5015986;28;20477;-77
2023/10/06 02:41:41;;;;;;;13.45;6.95;;;13.20;91.20;;;;;;5017658;28;20052;-75
2023/10/06 02:44:22;;;;;;;14.27;7.18;;;13.20;91.20;;;;;;5009846;28;20369;-75
2023/10/06 02:46:50;;;;;;;12.23;7.20;;;13.20;91.10;;;;;;5013576;28;20053;-75
2023/10/06 02:49:24;;;;;;;12.77;7.25;;;13.20;91.20;;;;;;5009672;28;20037;-75
2023/10/06 02:51:50;;;;;;;15.73;7.53;;;13.20;91.10;;;;;;5017953;28;20034;-74
2023/10/06 02:56:44;;;;;;;14.80;6.80;;;13.20;91.10;;;;;;5025562;28;20242;-75
2023/10/06 02:59:22;;;;;;;17.13;7.40;;;13.20;91.00;;;;;;5021481;28;20534;-77
2023/10/06 03:02:06;;;;;;;12.63;6.63;;;13.20;90.90;;;;;;5016003;28;20490;-76
2023/10/06 03:04:36;;;;;;;15.07;7.43;;;13.20;90.80;;;;;;5014776;28;20519;-74
2023/10/06 03:07:04;;;;;;;14.30;6.68;;;13.10;90.80;;;;;;5024193;28;20029;-76
2023/10/06 03:09:37;;;;;;;14.57;7.53;;;13.10;90.80;;;;;;5015608;28;20084;-74
2023/10/06 03:12:40;;;;;;;15.32;7.57;;;13.10;90.70;;;;;;5023858;28;20013;-73
2023/10/06 03:14:58;;;;;;;16.08;7.28;;;13.10;90.50;;;;;;5014463;28;20050;-75
2023/10/06 03:17:24;;;;;;;12.18;6.45;;;13.10;90.50;;;;;;5018676;28;20312;-75
2023/10/06 03:20:11;;;;;;;12.40;7.47;;;13.10;90.50;;;;;;5013698;28;20041;-73
2023/10/06 03:22:40;;;;;;;12.40;7.55;;;13.10;90.60;;;;;;5022195;28;20018;-74
2023/10/06 03:25:18;;;;;;;14.50;7.50;;;13.00;90.60;;;;;;5014970;28;20025;-77
2023/10/06 03:27:53;;;;;;;15.63;7.03;;;13.00;90.70;;;;;;5018386;28;20025;-72
2023/10/06 03:30:26;;;;;;;13.93;8.00;;;13.00;90.70;;;;;;5017853;28;20347;-72
2023/10/06 03:32:53;;;;;;;17.67;8.27;;;13.00;90.70;;;;;;5019396;28;20069;-76
2023/10/06 03:37:53;;;;;;;16.27;8.63;;;12.90;90.60;;;;;;5018526;28;20473;-74
2023/10/06 03:40:29;;;;;;;16.90;8.82;;;13.00;90.60;;;;;;5019408;28;20384;-74
2023/10/06 03:42:56;;;;;;;16.70;7.88;;;12.90;90.50;;;;;;5012906;28;20025;-76
2023/10/06 03:45:32;;;;;;;20.23;8.40;;;12.90;90.60;;;;;;5020690;28;20033;-79
2023/10/06 03:48:13;;;;;;;14.30;7.90;;;13.00;90.50;;;;;;5018995;28;21028;-75
2023/10/06 03:50:41;;;;;;;17.52;8.18;;;12.90;90.60;;;;;;5019644;28;20441;-79
2023/10/06 03:53:08;;;;;;;14.45;8.27;;;12.90;90.50;;;;;;5019384;28;20045;-76
2023/10/06 03:55:45;;;;;;;15.25;8.15;;;12.80;90.40;;;;;;5019352;28;20487;-75
2023/10/06 03:58:16;;;;;;;14.35;7.95;;;12.90;90.30;;;;;;5014359;28;20147;-73
2023/10/06 04:00:48;;;;;;;13.55;8.30;;;12.90;90.30;;;;;;5016972;28;20041;-74
2023/10/06 04:03:17;;;;;;;14.52;7.90;;;12.80;90.30;;;;;;5013228;28;20037;-78
2023/10/06 04:05:52;;;;;;;15.25;8.65;;;12.80;90.40;;;;;;5022758;28;20419;-73
2023/10/06 04:08:20;;;;;;;14.50;7.93;;;12.80;90.40;;;;;;5015705;28;20048;-74
2023/10/06 04:10:57;;;;;;;16.30;9.23;;;12.70;90.50;;;;;;5013402;28;20476;-74
2023/10/06 04:13:23;;;;;;;15.57;8.15;;;12.70;90.60;;;;;;5015755;28;20540;-75
2023/10/06 04:15:49;;;;;;;17.23;8.68;;;12.70;90.60;;;;;;5020408;28;20033;-77
2023/10/06 04:18:19;;;;;;;15.35;8.75;;;12.70;90.60;;;;;;5015872;28;20411;-78
2023/10/06 04:20:46;;;;;;;17.95;8.10;;;12.60;90.70;;;;;;5015743;28;20034;-75
2023/10/06 04:23:12;;;;;;;16.25;8.15;;;12.60;90.80;;;;;;5017068;28;20041;-76
2023/10/06 04:25:39;;;;;;;16.25;8.20;;;12.60;90.90;;;;;;5018303;28;20349;-71
2023/10/06 04:28:08;;;;;;;16.17;8.70;;;12.60;90.90;;;;;;5017341;28;20049;-72
2023/10/06 04:30:35;;;;;;;15.98;8.43;;;12.60;91.00;;;;;;5017807;28;20065;-77
2023/10/06 04:33:03;;;;;;;16.20;8.95;;;12.60;91.10;;;;;;5018102;28;20165;-74
2023/10/06 04:35:32;;;;;;;17.17;8.95;;;12.60;91.10;;;;;;5017960;28;20057;-75
2023/10/06 04:38:03;;;;;;;16.88;8.95;;;12.60;91.10;;;;;;5008686;28;20410;-75
2023/10/06 04:40:29;;;;;;;16.80;9.02;;;12.60;91.20;;;;;;5012330;28;20044;-75
2023/10/06 04:42:56;;;;;;;14.45;7.60;;;12.60;91.20;;;;;;5010693;28;20034;-75
2023/10/06 04:45:23;;;;;;;16.83;8.60;;;12.60;91.20;;;;;;5007145;28;20752;-74
2023/10/06 04:47:49;;;;;;;14.52;7.57;;;12.60;91.30;;;;;;5012066;28;20216;-74
2023/10/06 04:50:16;;;;;;;17.63;9.50;;;12.60;91.30;;;;;;5014712;28;20108;-73
2023/10/06 04:52:48;;;;;;;17.08;8.05;;;12.60;91.30;;;;;;5017021;28;20447;-77
2023/10/06 04:55:14;;;;;;;14.73;8.25;;;12.60;91.30;;;;;;5014156;28;20464;-72
2023/10/06 04:57:44;;;;;;;13.65;8.48;;;12.60;91.30;;;;;;5013261;28;20048;-74
2023/10/06 05:00:19;;;;;;;19.05;8.27;;;12.60;91.30;;;;;;5016652;28;20030;-74
2023/10/06 05:02:50;;;;;;;17.30;7.55;;;12.60;91.30;;;;;;5018488;28;20053;-73
2023/10/06 05:05:19;;;;;;;16.55;9.00;;;12.60;91.20;;;;;;5010166;28;20228;-76
2023/10/06 05:07:46;;;;;;;17.67;8.77;;;12.60;91.30;;;;;;5012899;28;20037;-73
2023/10/06 05:10:12;;;;;;;13.30;7.57;;;12.60;91.20;;;;;;5013519;28;20033;-72
2023/10/06 05:12:38;;;;;;;18.15;9.18;;;12.60;91.20;;;;;;5014646;28;20283;-73
2023/10/06 05:15:07;;;;;;;15.23;8.20;;;12.60;91.20;;;;;;5012256;28;20327;-73
2023/10/06 05:17:34;;;;;;;13.88;8.63;;;12.60;91.30;;;;;;5014324;28;20018;-73
2023/10/06 05:20:01;;;;;;;15.88;8.45;;;12.60;91.20;;;;;;5011290;28;20034;-78
2023/10/06 05:22:26;;;;;;;16.80;8.35;;;12.60;91.20;;;;;;5006834;28;20489;-73
2023/10/06 05:24:52;;;;;;;15.35;8.73;;;12.60;91.20;;;;;;5013599;28;20112;-72
2023/10/06 05:27:19;;;;;;;16.50;9.68;;;12.60;91.20;;;;;;5011489;28;20006;-74
2023/10/06 05:29:46;;;;;;;15.93;8.93;;;12.60;91.30;;;;;;5010217;28;20084;-74
2023/10/06 05:32:13;;;;;;;17.90;10.15;;;12.60;91.30;;;;;;5009072;28;20021;-72
2023/10/06 05:34:40;;;;;;;22.08;9.48;;;12.60;91.30;;;;;;5016805;28;20396;-74
2023/10/06 05:37:08;;;;;;;21.00;10.30;;;12.60;91.30;;;;;;5013301;28;20029;-76
2023/10/06 05:39:35;;;;;;;19.85;10.55;;;12.60;91.30;;;;;;5011453;28;20085;-72
2023/10/06 05:42:02;;;;;;;19.80;9.88;;;12.60;91.20;;;;;;5011062;28;20065;-73
2023/10/06 05:44:28;;;;;;;20.88;10.43;;;12.60;91.30;;;;;;5009192;28;20098;-72
2023/10/06 05:46:54;;;;;;;20.55;10.85;;;12.70;91.20;;;;;;5011723;28;20117;-74
2023/10/06 05:49:23;;;;;;;17.90;10.93;;;12.70;91.10;;;;;;5013316;28;20769;-73
2023/10/06 05:51:49;;;;;;;17.17;10.80;;;12.80;91.00;;;;;;5011728;28;20074;-72
2023/10/06 05:54:21;;;;;;;19.45;10.25;;;12.80;90.90;;;;;;5017338;28;20041;-72
2023/10/06 05:56:52;;;;;;;20.40;10.77;;;12.80;90.80;;;;;;5014495;28;20049;-74
2023/10/06 05:59:19;;;;;;;20.02;10.73;;;12.80;90.90;;;;;;5012660;28;20745;-73
2023/10/06 06:01:46;;;;;;;20.85;11.52;;;12.80;90.80;;;;;;5014904;28;20053;-72
2023/10/06 06:04:12;;;;;;;19.45;11.13;;;12.90;90.70;;;;;;5009778;28;20408;-74
2023/10/06 06:06:38;;;;;;;23.00;11.82;;;12.90;90.70;;;;;;5014714;28;20037;-73
2023/10/06 06:09:14;;;;;;;19.40;10.43;;;12.90;90.60;;;;;;5010110;28;20044;-73
2023/10/06 06:11:40;;;;;;;17.80;10.63;;;12.80;90.60;;;;;;5017102;28;20067;-72
2023/10/06 06:14:06;;;;;;;20.80;10.70;;;12.90;90.60;;;;;;5012222;28;20073;-74
2023/10/06 06:16:32;;;;;;;18.10;10.95;;;12.90;90.60;;;;;;5017694;28;20034;-70
2023/10/06 06:18:58;;;;;;;19.33;10.93;;;13.00;90.60;;;;;;5013469;28;20080;-70
2023/10/06 06:21:24;;;;;;;18.90;11.52;;;13.00;90.60;;;;;;5012747;28;20033;-73
2023/10/06 06:23:51;;;;;;;20.73;10.70;;;13.10;90.40;;;;;;5010352;28;20072;-71
2023/10/06 06:26:17;;;;;;;22.02;11.32;;;13.10;90.30;;;;;;5014860;28;20029;-71
2023/10/06 06:28:46;;;;;;;21.38;11.07;;;13.10;90.10;;;;;;5020408;28;20063;-71
2023/10/06 06:31:18;;;;;;;21.02;11.27;;;13.20;90.10;;;;;;5018148;28;20040;-70
2023/10/06 06:33:44;;;;;;;20.35;11.60;;;13.30;90.10;;;;;;5017283;28;20064;-72
2023/10/06 06:36:09;;;;;;;22.15;12.02;;;13.30;90.00;;;;;;5019538;28;20337;-72
2023/10/06 06:38:39;;;;;;;20.23;11.38;;;13.30;89.80;;;;;;5016627;28;20536;-71
2023/10/06 06:41:05;;;;;;;23.05;11.02;;;13.30;89.90;;;;;;5013620;28;20061;-71
2023/10/06 06:43:31;;;;;;;20.58;11.55;;;13.40;89.70;;;;;;5017162;28;20068;-75
2023/10/06 06:45:58;;;;;;;21.25;11.68;;;13.50;89.50;;;;;;5012001;28;20432;-70
2023/10/06 06:48:25;;;;;;;21.60;11.32;;;13.50;89.50;;;;;;5013057;28;20044;-70
2023/10/06 06:50:52;;;;;;;17.80;10.05;;;13.50;89.40;;;;;;5010268;28;20376;-71
2023/10/06 06:53:18;;;;;;;21.83;11.70;;;13.60;89.50;;;;;;5021464;28;20498;-70
2023/10/06 06:55:44;;;;;;;22.20;10.95;;;13.60;89.40;;;;;;5017525;28;20033;-71
2023/10/06 06:58:11;;;;;;;21.27;10.75;;;13.60;89.40;;;;;;5016094;28;20499;-70
2023/10/06 07:00:41;;;;;;;19.48;10.30;;;13.60;89.20;;;;;;5023203;28;20042;-72
2023/10/06 07:03:07;;;;;;;25.58;10.45;;;13.60;89.10;;;;;;5023330;28;20037;-70
2023/10/06 07:05:36;;;;;;;19.08;9.80;;;13.60;89.20;;;;;;5023550;28;20042;-69
2023/10/06 07:08:04;;;;;;;18.08;9.32;;;13.70;88.90;;;;;;5023586;28;20100;-71
2023/10/06 07:10:30;;;;;;;21.80;9.90;;;13.70;88.90;;;;;;5016812;28;20148;-72
2023/10/06 07:13:00;;;;;;;19.20;9.95;;;13.70;88.80;;;;;;5015787;28;20037;-72
2023/10/06 07:15:29;;;;;;;18.42;9.60;;;13.80;88.80;;;;;;5015478;28;20042;-71
2023/10/06 07:17:57;;;;;;;18.90;9.27;;;13.90;88.70;;;;;;5024047;28;20026;-71
2023/10/06 07:20:27;;;;;;;20.92;10.10;;;13.90;88.50;;;;;;5018639;28;20051;-71
2023/10/06 07:22:55;;;;;;;17.95;9.38;;;14.00;88.20;;;;;;5021701;28;20029;-70
2023/10/06 07:25:24;;;;;;;17.10;9.13;;;14.00;88.00;;;;;;5023127;28;20040;-72
2023/10/06 07:27:52;;;;;;;16.70;8.88;;;14.10;88.10;;;;;;5020427;28;20025;-72
2023/10/06 07:30:22;;;;;;;18.92;9.27;;;14.10;88.10;;;;;;5023705;28;20029;-70
2023/10/06 07:32:49;;;;;;;31.00;10.93;;;14.10;87.90;;;;;;5025599;28;20281;-70
2023/10/06 07:35:18;;;;;;;19.55;9.35;;;14.10;87.60;;;;;;5023778;28;20083;-71
2023/10/06 07:37:49;;;;;;;15.57;8.68;;;14.20;87.70;;;;;;5015283;28;20024;-70
2023/10/06 07:40:21;;;;;;;16.42;9.65;;;14.20;87.80;;;;;;5024509;28;20041;-72
2023/10/06 07:42:49;;;;;;;20.05;8.68;;;14.40;87.60;;;;;;5017533;28;20412;-72
2023/10/06 07:45:16;;;;;;;16.77;8.70;;;14.40;87.30;;;;;;5023656;28;20079;-71
2023/10/06 07:47:42;;;;;;;16.25;8.60;;;14.60;87.20;;;;;;5021497;28;20025;-72
2023/10/06 07:50:09;;;;;;;14.02;7.70;;;14.60;87.20;;;;;;5021094;28;20036;-72
2023/10/06 07:52:36;;;;;;;13.93;8.13;;;14.80;87.10;;;;;;5022260;28;20025;-72
2023/10/06 07:55:05;;;;;;;19.02;8.20;;;15.00;86.80;;;;;;5015921;28;20030;-71
2023/10/06 07:57:36;;;;;;;15.73;7.53;;;15.10;86.20;;;;;;5021020;28;20045;-71
2023/10/06 08:00:06;;;;;;;15.80;7.97;;;15.30;85.30;;;;;;5019887;28;20025;-72
2023/10/06 08:02:33;;;;;;;17.30;7.63;;;15.40;85.30;;;;;;5019456;28;20029;-72
2023/10/06 08:04:59;;;;;;;17.63;8.18;;;15.40;85.00;;;;;;5014862;28;20121;-71
2023/10/06 08:07:28;;;;;;;15.48;7.75;;;15.40;85.10;;;;;;5016979;28;20084;-71
2023/10/06 08:09:59;;;;;;;17.33;7.40;;;15.40;85.40;;;;;;5019446;28;20146;-71
2023/10/06 08:12:25;;;;;;;13.80;7.03;;;15.50;85.40;;;;;;5022754;28;20026;-72
2023/10/06 08:14:50;;;;;;;15.00;7.10;;;15.50;85.40;;;;;;5015601;28;20045;-76
2023/10/06 08:17:19;;;;;;;15.77;6.82;;;15.60;85.40;;;;;;5013493;28;20388;-76
2023/10/06 08:19:46;;;;;;;14.88;6.15;;;15.90;85.20;;;;;;5017901;28;20091;-75
2023/10/06 08:22:13;;;;;;;15.80;7.60;;;16.00;84.60;;;;;;5015013;28;20411;-75
2023/10/06 08:24:38;;;;;;;14.02;6.80;;;16.10;84.00;;;;;;5022655;28;20041;-75
2023/10/06 08:27:07;;;;;;;16.83;7.32;;;16.10;84.10;;;;;;5025316;28;20044;-74
2023/10/06 08:29:33;;;;;;;26.05;9.00;;;16.20;84.10;;;;;;5018411;28;20029;-75
2023/10/06 08:31:59;;;;;;;16.75;7.47;;;16.30;84.20;;;;;;5020711;28;20033;-74
2023/10/06 08:34:27;;;;;;;15.57;7.20;;;16.50;84.40;;;;;;5020186;28;20044;-72
2023/10/06 08:36:53;;;;;;;13.52;7.22;;;16.60;83.80;;;;;;5012478;28;20026;-73
2023/10/06 08:39:20;;;;;;;15.30;7.30;;;16.60;83.70;;;;;;5017973;28;20040;-72
2023/10/06 08:41:52;;;;;;;15.55;7.13;;;16.70;83.50;;;;;;5018602;28;20071;-72
2023/10/06 08:44:22;;;;;;;16.52;7.43;;;16.70;83.40;;;;;;5015935;28;20052;-72
2023/10/06 08:46:49;;;;;;;12.50;6.88;;;16.80;83.20;;;;;;5011998;28;20120;-73
2023/10/06 08:49:19;;;;;;;16.15;7.40;;;16.70;83.40;;;;;;5013088;28;20042;-72
2023/10/06 08:51:49;;;;;;;14.95;7.00;;;16.70;83.10;;;;;;5013956;28;20029;-71
2023/10/06 08:54:17;;;;;;;15.00;6.93;;;16.80;83.20;;;;;;5013500;28;20058;-73
2023/10/06 08:56:43;;;;;;;16.63;7.10;;;16.90;83.00;;;;;;5014993;28;20049;-72
2023/10/06 08:59:11;;;;;;;15.30;7.13;;;16.90;82.90;;;;;;5014802;28;20084;-73
2023/10/06 09:01:37;;;;;;;16.67;6.50;;;16.90;82.90;;;;;;5016886;28;20037;-72
2023/10/06 09:04:06;;;;;;;15.55;6.85;;;16.90;83.10;;;;;;5011432;28;20041;-72
2023/10/06 09:06:32;;;;;;;15.13;6.13;;;17.10;82.60;;;;;;5015857;28;20034;-73
2023/10/06 09:08:58;;;;;;;13.15;7.40;;;17.50;82.30;;;;;;5014848;28;20037;-72
2023/10/06 09:11:40;;;;;;;12.68;6.63;;;17.60;81.50;;;;;;5014000;28;20500;-72
2023/10/06 09:14:07;;;;;;;13.57;6.75;;;18.00;81.00;;;;;;5012372;28;20092;-72
2023/10/06 09:16:50;;;;;;;12.73;6.28;;;18.10;80.10;;;;;;5013966;28;20033;-72
2023/10/06 09:19:15;;;;;;;12.10;6.75;;;18.40;79.20;;;;;;5011744;28;20055;-74
2023/10/06 09:22:02;;;;;;;13.45;6.68;;;18.60;78.40;;;;;;5012528;28;20034;-72
2023/10/06 09:24:29;;;;;;;11.55;6.82;;;18.50;78.50;;;;;;5010953;28;20344;-72
2023/10/06 09:26:55;;;;;;;16.60;6.78;;;18.40;78.00;;;;;;5012522;28;20021;-72
2023/10/06 09:29:36;;;;;;;12.23;6.40;;;18.50;78.80;;;;;;5012625;28;20052;-72
2023/10/06 09:32:20;;;;;;;19.67;6.97;;;18.70;78.60;;;;;;5012923;28;20048;-73
2023/10/06 09:34:46;;;;;;;16.95;6.60;;;19.10;77.40;;;;;;5010291;28;20097;-73
2023/10/06 09:37:21;;;;;;;13.20;6.85;;;19.00;77.00;;;;;;5014999;28;20025;-73
2023/10/06 09:39:57;;;;;;;14.48;6.72;;;19.00;76.80;;;;;;5010909;28;20048;-73
2023/10/06 09:42:29;;;;;;;13.35;6.45;;;19.00;77.10;;;;;;5009901;28;20048;-72
2023/10/06 09:45:11;;;;;;;14.68;6.20;;;19.10;77.10;;;;;;5014489;28;20026;-72
2023/10/06 09:47:48;;;;;;;13.88;6.38;;;19.10;76.90;;;;;;5013420;28;20026;-73
2023/10/06 09:50:15;;;;;;;14.70;6.43;;;19.10;76.40;;;;;;5009938;28;20041;-72
2023/10/06 09:52:43;;;;;;;12.65;6.32;;;19.20;76.20;;;;;;5011195;28;20035;-75
2023/10/06 09:55:09;;;;;;;19.40;6.53;;;19.10;76.50;;;;;;5015078;28;20022;-73
2023/10/06 09:57:36;;;;;;;18.70;5.95;;;19.10;76.70;;;;;;5020818;28;20438;-74
2023/10/06 10:00:02;;;;;;;14.80;6.32;;;19.30;76.60;;;;;;5020942;28;20025;-74
2023/10/06 10:02:32;;;;;;;13.75;6.13;;;19.20;76.60;;;;;;5026205;28;20655;-73
2023/10/06 10:05:02;;;;;;;13.45;6.45;;;19.30;76.00;;;;;;5025315;28;20095;-74
2023/10/06 10:07:29;;;;;;;18.60;6.10;;;19.30;76.20;;;;;;5017876;28;20022;-73
2023/10/06 10:09:57;;;;;;;21.75;6.93;;;19.50;76.10;;;;;;5025323;28;20026;-72
2023/10/06 10:12:48;;;;;;;12.43;5.93;;;19.60;75.70;;;;;;5021110;28;20113;-73
2023/10/06 10:15:24;;;;;;;12.90;6.30;;;19.80;75.00;;;;;;4984861;28;20073;-73
2023/10/06 10:17:54;;;;;;;13.13;6.63;;;19.90;74.60;;;;;;5016368;28;20076;-72
2023/10/06 10:20:25;;;;;;;15.60;6.90;;;20.00;74.60;;;;;;5026031;28;20404;-73
2023/10/06 10:22:54;;;;;;;14.00;7.15;;;20.00;74.30;;;;;;5021890;28;20033;-72
2023/10/06 10:25:23;;;;;;;15.25;7.13;;;20.10;74.70;;;;;;5023053;28;20030;-73
2023/10/06 10:28:16;;;;;;;15.88;5.78;;;20.10;73.90;;;;;;5019306;28;20492;-74
2023/10/06 10:30:59;;;;;;;17.27;6.82;;;20.20;74.20;;;;;;5018356;28;20029;-72
2023/10/06 10:33:29;;;;;;;16.58;6.75;;;20.40;73.80;;;;;;5013023;28;20045;-73
2023/10/06 10:36:17;;;;;;;13.70;6.60;;;20.40;73.70;;;;;;5016715;28;20042;-73
2023/10/06 10:38:44;;;;;;;16.92;6.88;;;20.60;74.00;;;;;;5014499;28;20050;-72
2023/10/06 10:41:10;;;;;;;14.00;7.32;;;20.80;73.30;;;;;;5015058;28;20620;-73
2023/10/06 10:43:45;;;;;;;13.52;5.32;;;20.60;72.90;;;;;;5015725;28;20038;-73
2023/10/06 10:46:12;;;;;;;14.98;6.55;;;20.70;73.20;;;;;;5013404;28;20038;-72
2023/10/06 10:48:47;;;;;;;13.05;6.10;;;20.80;73.20;;;;;;5013746;28;20132;-73
2023/10/06 10:51:14;;;;;;;15.95;6.20;;;20.60;72.60;;;;;;5013540;28;20033;-73
2023/10/06 10:53:43;;;;;;;14.82;6.57;;;20.60;73.20;;;;;;5011289;28;20045;-73
2023/10/06 10:56:25;;;;;;;14.20;5.50;;;20.60;73.40;;;;;;5015601;28;20087;-73
2023/10/06 10:58:50;;;;;;;13.32;6.43;;;20.60;73.80;;;;;;5014148;28;20491;-73
2023/10/06 11:01:38;;;;;;;11.98;5.75;;;20.80;73.00;;;;;;5016044;28;20041;-73
2023/10/06 11:04:13;;;;;;;14.70;6.25;;;20.70;72.50;;;;;;5011620;28;20030;-73
2023/10/06 11:06:45;;;;;;;14.90;6.55;;;20.90;72.80;;;;;;5011785;28;20042;-73
2023/10/06 11:09:23;;;;;;;13.30;5.35;;;20.80;71.20;;;;;;5015263;28;20124;-72
2023/10/06 11:11:48;;;;;;;15.35;6.30;;;20.70;71.30;;;;;;5015062;28;20026;-73
2023/10/06 11:14:14;;;;;;;13.05;5.95;;;20.60;71.60;;;;;;5016420;28;20053;-72
2023/10/06 11:16:49;;;;;;;14.57;6.35;;;20.70;72.20;;;;;;5020434;28;20717;-73
2023/10/06 11:19:15;;;;;;;15.65;6.22;;;20.70;71.70;;;;;;5013329;28;20037;-72
2023/10/06 11:21:44;;;;;;;11.77;6.00;;;20.70;71.90;;;;;;5016037;28;20257;-73
2023/10/06 11:24:10;;;;;;;12.93;5.20;;;20.60;71.60;;;;;;5015811;28;20064;-71
2023/10/06 11:26:36;;;;;;;13.43;5.45;;;20.60;71.90;;;;;;5020254;28;20377;-72
2023/10/06 11:29:03;;;;;;;14.50;6.05;;;20.60;71.60;;;;;;5020109;28;20036;-74
2023/10/06 11:31:29;;;;;;;12.02;5.50;;;20.70;71.70;;;;;;5018698;28;20710;-72
2023/10/06 11:33:58;;;;;;;12.77;5.35;;;20.80;71.70;;;;;;5015081;28;20540;-72
2023/10/06 11:36:24;;;;;;;12.68;5.50;;;20.80;70.70;;;;;;5017015;28;20535;-74
2023/10/06 11:38:50;;;;;;;14.57;5.53;;;20.80;70.90;;;;;;5015559;28;20034;-74
2023/10/06 11:41:25;;;;;;;12.65;5.28;;;20.80;70.50;;;;;;5019873;28;20499;-72
2023/10/06 11:43:58;;;;;;;14.27;5.10;;;21.00;70.50;;;;;;5015782;28;20123;-73
2023/10/06 11:46:24;;;;;;;13.93;4.93;;;21.20;69.70;;;;;;5018878;28;20240;-74
2023/10/06 11:48:52;;;;;;;10.90;5.32;;;21.40;69.70;;;;;;5015909;28;20043;-74
2023/10/06 11:51:18;;;;;;;12.35;4.88;;;21.60;69.80;;;;;;5017524;28;20427;-74
2023/10/06 11:53:44;;;;;;;14.82;5.28;;;21.70;69.00;;;;;;5010865;28;20054;-72
2023/10/06 11:56:15;;;;;;;11.88;4.95;;;21.90;69.70;;;;;;5017543;28;20187;-73
2023/10/06 11:58:41;;;;;;;13.50;5.10;;;21.90;68.70;;;;;;5021096;28;20502;-72
2023/10/06 12:01:31;;;;;;;12.35;4.93;;;22.00;67.90;;;;;;5017598;28;20093;-74
2023/10/06 12:04:00;;;;;;;12.00;4.78;;;21.80;68.00;;;;;;5018654;28;20502;-73
2023/10/06 12:06:40;;;;;;;10.40;4.70;;;21.80;68.00;;;;;;5019832;28;20030;-74
2023/10/06 12:09:08;;;;;;;12.32;4.93;;;21.80;68.40;;;;;;5015624;28;20065;-73
2023/10/06 12:11:34;;;;;;;11.23;4.57;;;21.80;68.40;;;;;;5020144;28;20042;-72
2023/10/06 12:13:59;;;;;;;12.05;5.03;;;21.70;68.50;;;;;;5020605;28;20052;-72
2023/10/06 12:16:25;;;;;;;11.77;4.25;;;21.70;68.60;;;;;;5019617;28;20661;-73
2023/10/06 12:18:51;;;;;;;11.32;4.90;;;21.80;69.10;;;;;;5017443;28;20112;-74
2023/10/06 12:21:17;;;;;;;10.70;4.43;;;22.00;68.90;;;;;;5011936;28;20124;-74
2023/10/06 12:23:47;;;;;;;9.77;4.43;;;22.10;69.20;;;;;;5018499;28;20091;-73
2023/10/06 12:26:13;;;;;;;9.30;4.28;;;22.30;67.30;;;;;;5020936;28;20419;-72
2023/10/06 12:28:42;;;;;;;11.02;5.10;;;22.10;68.30;;;;;;5017342;28;20033;-72
2023/10/06 12:31:08;;;;;;;11.68;4.50;;;22.10;68.40;;;;;;5017029;28;20087;-73
2023/10/06 12:33:34;;;;;;;11.10;5.40;;;21.80;68.80;;;;;;5017956;28;20450;-72
2023/10/06 12:36:03;;;;;;;12.55;5.40;;;21.60;69.00;;;;;;5017465;28;20460;-71
2023/10/06 12:38:30;;;;;;;10.65;4.72;;;21.50;69.50;;;;;;5013627;28;20132;-72
2023/10/06 12:40:56;;;;;;;14.50;5.35;;;21.10;71.50;;;;;;5014169;28;20099;-71
2023/10/06 12:43:22;;;;;;;14.48;5.00;;;21.10;72.00;;;;;;5010618;28;20033;-73
2023/10/06 12:45:48;;;;;;;11.65;5.43;;;21.10;71.70;;;;;;5017651;28;20117;-74
2023/10/06 12:48:14;;;;;;;13.27;4.88;;;21.10;71.30;;;;;;5015529;28;20196;-73
2023/10/06 12:50:43;;;;;;;13.10;4.78;;;21.10;71.40;;;;;;5014954;28;20042;-72
2023/10/06 12:53:12;;;;;;;12.10;4.82;;;21.10;71.50;;;;;;5015264;28;20116;-74